Time;durP1;ratioP1;P1;durP2;ratioP2;P2;SDS_P1;SDS_P2;PMS_P1;PMS_P2;Temp;Humidity;BMP_temperature;BMP_pressure;BME280_temperature;BME280_humidity;BME280_pressure;Samples;Min_cycle;Max_cycle;Signal;HPM_P1;HPM_P2
2023/01/10 00:01:44;;;;;;;25.63;2.92;;;;;;;;;;4967590;28;20046;-70
2023/01/10 00:04:11;;;;;;;28.58;3.08;;;;;;;;;;4969342;28;20047;-70
2023/01/10 00:06:39;;;;;;;28.85;3.92;;;;;;;;;;4966373;28;20514;-70
2023/01/10 00:09:07;;;;;;;29.98;3.78;;;;;;;;;;4969171;28;20043;-70
2023/01/10 00:14:19;;;;;;;29.02;3.20;;;;;;;;;;4964140;28;20057;-70
2023/01/10 00:16:46;;;;;;;26.90;3.28;;;;;;;;;;4964385;28;20382;-70
2023/01/10 00:19:13;;;;;;;29.13;3.00;;;;;;;;;;4964699;28;20055;-70
2023/01/10 00:21:42;;;;;;;23.52;3.00;;;;;;;;;;4961522;28;20078;-70
2023/01/10 00:24:16;;;;;;;25.63;2.80;;;;;;;;;;4959824;28;20051;-70
2023/01/10 00:26:46;;;;;;;34.17;3.22;;;;;;;;;;4960003;28;20138;-70
2023/01/10 00:29:14;;;;;;;22.67;2.58;;;;;;;;;;4958364;28;20051;-70
2023/01/10 00:31:42;;;;;;;27.27;2.90;;;;;;;;;;4965810;28;20066;-70
2023/01/10 00:34:09;;;;;;;31.58;3.33;;;;;;;;;;4969494;28;20047;-69
2023/01/10 00:36:36;;;;;;;32.75;3.10;;;;;;;;;;4967535;28;20058;-70
2023/01/10 00:39:11;;;;;;;19.10;3.20;;;;;;;;;;4961415;28;20050;-70
2023/01/10 00:44:22;;;;;;;32.50;3.92;;;;;;;;;;4930905;28;20051;-70
2023/01/10 00:46:49;;;;;;;38.60;3.90;;;;;;;;;;4965899;28;20054;-70
2023/01/10 00:49:17;;;;;;;27.70;3.13;;;;;;;;;;4963687;28;20129;-70
2023/01/10 00:51:45;;;;;;;31.35;3.35;;;;;;;;;;4964582;28;20130;-70
2023/01/10 00:54:14;;;;;;;25.25;3.50;;;;;;;;;;4968069;28;20047;-70
2023/01/10 00:56:41;;;;;;;26.80;3.42;;;;;;;;;;4963868;28;20074;-70
2023/01/10 00:59:09;;;;;;;23.75;3.00;;;;;;;;;;4966324;28;20513;-70
2023/01/10 01:01:36;;;;;;;33.40;4.05;;;;;;;;;;4966265;28;20055;-70
2023/01/10 01:04:03;;;;;;;35.53;3.45;;;;;;;;;;4966426;28;20050;-70
2023/01/10 01:06:30;;;;;;;31.55;3.15;;;;;;;;;;4970533;28;20528;-70
2023/01/10 01:08:57;;;;;;;26.75;3.70;;;;;;;;;;4964297;28;20051;-70
2023/01/10 01:11:26;;;;;;;34.60;3.60;;;;;;;;;;4971534;28;20073;-69
2023/01/10 01:13:53;;;;;;;40.80;3.13;;;;;;;;;;4966530;28;20084;-70
2023/01/10 01:16:21;;;;;;;28.85;3.35;;;;;;;;;;4963816;28;20413;-70
2023/01/10 01:18:48;;;;;;;31.35;3.53;;;;;;;;;;4966277;28;20046;-70
2023/01/10 01:21:15;;;;;;;24.45;3.35;;;;;;;;;;4967523;28;20069;-70
2023/01/10 01:23:43;;;;;;;17.20;2.10;;;;;;;;;;4965697;28;20050;-70
2023/01/10 01:26:10;;;;;;;26.23;2.78;;;;;;;;;;4971300;28;20047;-70
2023/01/10 01:28:39;;;;;;;20.92;2.25;;;;;;;;;;4967094;28;20150;-70
2023/01/10 01:31:09;;;;;;;16.45;1.90;;;;;;;;;;4971901;28;20046;-70
2023/01/10 01:33:37;;;;;;;15.98;1.95;;;;;;;;;;4971462;28;20074;-70
2023/01/10 01:36:08;;;;;;;24.10;2.90;;;;;;;;;;4965707;28;20134;-70
2023/01/10 01:38:35;;;;;;;27.42;2.38;;;;;;;;;;4968526;28;20110;-70
2023/01/10 01:41:03;;;;;;;26.15;2.75;;;;;;;;;;4970407;28;20054;-70
2023/01/10 01:43:31;;;;;;;23.52;2.58;;;;;;;;;;4969189;28;20409;-70
2023/01/10 01:46:01;;;;;;;13.13;1.80;;;;;;;;;;4968042;28;20047;-71
2023/01/10 01:48:30;;;;;;;18.52;2.30;;;;;;;;;;4970143;28;20062;-70
2023/01/10 01:51:04;;;;;;;19.98;2.22;;;;;;;;;;4969586;28;20058;-70
2023/01/10 01:53:34;;;;;;;20.77;2.00;;;;;;;;;;4970989;28;20063;-70
2023/01/10 01:56:03;;;;;;;21.27;2.40;;;;;;;;;;4968952;28;20154;-70
2023/01/10 01:58:33;;;;;;;20.42;3.20;;;;;;;;;;4969915;28;20043;-70
2023/01/10 02:01:02;;;;;;;18.00;1.70;;;;;;;;;;4970521;28;20063;-70
2023/01/10 02:03:30;;;;;;;19.23;2.28;;;;;;;;;;4968956;28;20054;-70
2023/01/10 02:05:57;;;;;;;23.55;2.70;;;;;;;;;;4968998;28;20054;-70
2023/01/10 02:08:24;;;;;;;22.05;1.88;;;;;;;;;;4965679;28;20101;-70
2023/01/10 02:10:54;;;;;;;14.57;1.52;;;;;;;;;;4965792;28;20058;-70
2023/01/10 02:13:23;;;;;;;7.80;1.13;;;;;;;;;;4963665;28;20497;-70
2023/01/10 02:15:50;;;;;;;6.10;1.05;;;;;;;;;;4962080;28;20059;-70
2023/01/10 02:18:20;;;;;;;8.35;1.38;;;;;;;;;;4968400;28;20046;-70
2023/01/10 02:20:55;;;;;;;11.13;1.13;;;;;;;;;;4969264;28;20138;-70
2023/01/10 02:23:51;;;;;;;5.47;0.70;;;;;;;;;;4966431;28;20499;-70
2023/01/10 02:26:36;;;;;;;8.93;0.85;;;;;;;;;;4969188;28;20047;-70
2023/01/10 02:29:19;;;;;;;11.13;1.27;;;;;;;;;;4969536;28;20058;-70
2023/01/10 02:32:04;;;;;;;9.52;1.27;;;;;;;;;;4963800;28;20405;-70
2023/01/10 02:34:36;;;;;;;9.80;1.23;;;;;;;;;;4957666;28;20148;-69
2023/01/10 02:37:09;;;;;;;12.18;1.27;;;;;;;;;;4968790;28;20441;-70
2023/01/10 02:39:40;;;;;;;18.92;1.40;;;;;;;;;;4967670;28;20142;-69
2023/01/10 02:42:08;;;;;;;12.63;2.33;;;;;;;;;;4964148;28;20512;-70
2023/01/10 02:44:36;;;;;;;23.30;2.60;;;;;;;;;;4966819;28;20055;-70
2023/01/10 02:47:04;;;;;;;20.95;2.00;;;;;;;;;;4969347;28;20058;-70
2023/01/10 02:49:31;;;;;;;19.33;2.47;;;;;;;;;;4961929;28;20058;-70
2023/01/10 02:52:00;;;;;;;30.02;2.92;;;;;;;;;;4963234;28;20050;-70
2023/01/10 02:54:29;;;;;;;18.73;2.33;;;;;;;;;;4970761;28;20051;-70
2023/01/10 02:57:21;;;;;;;29.15;2.85;;;;;;;;;;4969598;28;20097;-70
2023/01/10 03:00:15;;;;;;;22.50;2.53;;;;;;;;;;4968086;28;20059;-70
2023/01/10 03:02:42;;;;;;;;;;;;;;;;;;4945551;28;20123;-70
2023/01/10 03:05:13;;;;;;;34.28;3.30;;;;;;;;;;4970898;28;20078;-70
2023/01/10 03:07:44;;;;;;;37.72;4.88;;;;;;;;;;4970756;28;20055;-70
2023/01/10 03:10:15;;;;;;;48.33;4.13;;;;;;;;;;4963432;28;20050;-70
2023/01/10 03:12:45;;;;;;;36.28;3.85;;;;;;;;;;4964728;28;20059;-70
2023/01/10 03:15:14;;;;;;;33.38;4.90;;;;;;;;;;4964580;28;20057;-70
2023/01/10 03:17:43;;;;;;;37.65;4.63;;;;;;;;;;4963906;28;20520;-70
2023/01/10 03:20:11;;;;;;;43.70;5.68;;;;;;;;;;4963540;28;20046;-70
2023/01/10 03:22:40;;;;;;;47.45;5.20;;;;;;;;;;4967546;28;20513;-70
2023/01/10 03:25:12;;;;;;;48.78;5.20;;;;;;;;;;4962051;28;20382;-70
2023/01/10 03:27:40;;;;;;;42.92;5.40;;;;;;;;;;4962880;28;20061;-70
2023/01/10 03:30:13;;;;;;;60.45;5.47;;;;;;;;;;4965645;28;20050;-71
2023/01/10 03:32:42;;;;;;;51.63;5.57;;;;;;;;;;4965152;28;20054;-70
2023/01/10 03:35:10;;;;;;;62.05;7.38;;;;;;;;;;4970089;28;20414;-70
2023/01/10 03:37:39;;;;;;;44.50;4.97;;;;;;;;;;4964570;28;20054;-70
2023/01/10 03:40:10;;;;;;;46.78;6.28;;;;;;;;;;4967115;28;20062;-70
2023/01/10 03:45:25;;;;;;;63.90;5.55;;;;;;;;;;4963582;28;20050;-70
2023/01/10 03:47:54;;;;;;;69.63;6.28;;;;;;;;;;4968578;28;20042;-70
2023/01/10 03:50:23;;;;;;;56.90;6.10;;;;;;;;;;4964602;28;20054;-70
2023/01/10 03:52:50;;;;;;;61.35;5.88;;;;;;;;;;4967075;28;20409;-70
2023/01/10 03:55:21;;;;;;;44.05;5.75;;;;;;;;;;4967770;28;20054;-70
2023/01/10 03:57:48;;;;;;;48.65;4.85;;;;;;;;;;4964446;28;20066;-70
2023/01/10 04:00:16;;;;;;;54.15;5.18;;;;;;;;;;4965767;28;20046;-70
2023/01/10 04:02:44;;;;;;;48.42;5.13;;;;;;;;;;4968017;28;20486;-70
2023/01/10 04:05:11;;;;;;;43.85;6.53;;;;;;;;;;4967084;28;20150;-70
2023/01/10 04:07:38;;;;;;;59.85;5.43;;;;;;;;;;4965223;28;20051;-70
2023/01/10 04:10:06;;;;;;;48.40;5.18;;;;;;;;;;4969937;28;20565;-70
2023/01/10 04:12:35;;;;;;;50.03;5.40;;;;;;;;;;4964943;28;20058;-70
2023/01/10 04:15:02;;;;;;;52.38;5.43;;;;;;;;;;4967268;28;20062;-70
2023/01/10 04:17:29;;;;;;;49.88;5.15;;;;;;;;;;4968384;28;20934;-70
2023/01/10 04:19:56;;;;;;;70.70;5.53;;;;;;;;;;4969759;28;20553;-70
2023/01/10 04:22:24;;;;;;;67.18;5.97;;;;;;;;;;4965554;28;20047;-70
2023/01/10 04:24:52;;;;;;;54.72;5.60;;;;;;;;;;4968453;28;20491;-70
2023/01/10 04:27:20;;;;;;;59.75;5.63;;;;;;;;;;4961747;28;20058;-70
2023/01/10 04:29:48;;;;;;;61.30;7.13;;;;;;;;;;4967375;28;20082;-70
2023/01/10 04:32:15;;;;;;;55.50;5.72;;;;;;;;;;4968821;28;20049;-70
2023/01/10 04:34:43;;;;;;;49.55;5.82;;;;;;;;;;4973068;28;20105;-70
2023/01/10 04:37:10;;;;;;;76.80;6.30;;;;;;;;;;4971033;28;20070;-70
2023/01/10 04:39:37;;;;;;;61.55;5.80;;;;;;;;;;4965916;28;20046;-70
2023/01/10 04:42:04;;;;;;;60.60;7.47;;;;;;;;;;4972431;28;20047;-70
2023/01/10 04:44:31;;;;;;;50.35;6.53;;;;;;;;;;4968273;28;20524;-70
2023/01/10 04:47:00;;;;;;;71.25;7.68;;;;;;;;;;4963339;28;20050;-70
2023/01/10 04:49:27;;;;;;;47.60;6.22;;;;;;;;;;4960292;28;20062;-70
2023/01/10 04:51:54;;;;;;;44.80;6.25;;;;;;;;;;4969658;28;20078;-70
2023/01/10 04:54:22;;;;;;;34.67;4.47;;;;;;;;;;4967136;28;20148;-70
2023/01/10 04:56:49;;;;;;;31.60;4.38;;;;;;;;;;4966020;28;20061;-70
2023/01/10 04:59:17;;;;;;;38.97;4.15;;;;;;;;;;4971945;28;20497;-70
2023/01/10 05:01:44;;;;;;;30.10;3.20;;;;;;;;;;4969500;28;20054;-70
2023/01/10 05:04:13;;;;;;;28.90;3.13;;;;;;;;;;4972848;28;20062;-70
2023/01/10 05:06:40;;;;;;;27.10;2.78;;;;;;;;;;4966012;28;20518;-70
2023/01/10 05:09:07;;;;;;;21.80;1.88;;;;;;;;;;4969554;28;20825;-70
2023/01/10 05:11:34;;;;;;;18.55;1.52;;;;;;;;;;4973209;28;20446;-70
2023/01/10 05:14:02;;;;;;;18.95;1.63;;;;;;;;;;4965139;28;20039;-70
2023/01/10 05:16:29;;;;;;;13.60;1.30;;;;;;;;;;4970678;28;20046;-70
2023/01/10 05:18:56;;;;;;;10.73;1.38;;;;;;;;;;4971598;28;20054;-70
2023/01/10 05:21:25;;;;;;;15.40;2.22;;;;;;;;;;4970178;28;20050;-70
2023/01/10 05:23:52;;;;;;;19.13;2.33;;;;;;;;;;4960616;28;20043;-70
2023/01/10 05:26:20;;;;;;;19.65;1.95;;;;;;;;;;4971239;28;20042;-70
2023/01/10 05:28:47;;;;;;;21.70;2.13;;;;;;;;;;4966471;28;20057;-70
2023/01/10 05:31:16;;;;;;;22.65;2.53;;;;;;;;;;4968229;28;20047;-70
2023/01/10 05:33:46;;;;;;;23.33;1.90;;;;;;;;;;4970235;28;20054;-70
2023/01/10 05:36:14;;;;;;;28.88;2.88;;;;;;;;;;4969605;28;20117;-70
2023/01/10 05:38:42;;;;;;;23.38;2.75;;;;;;;;;;4972521;28;20055;-70
2023/01/10 05:41:10;;;;;;;35.55;4.18;;;;;;;;;;4969866;28;20058;-70
2023/01/10 05:43:37;;;;;;;30.25;3.15;;;;;;;;;;4964106;28;20050;-70
2023/01/10 05:46:04;;;;;;;45.60;4.20;;;;;;;;;;4968357;28;20404;-70
2023/01/10 05:48:32;;;;;;;66.07;4.50;;;;;;;;;;4969664;28;20573;-70
2023/01/10 05:50:59;;;;;;;38.28;3.72;;;;;;;;;;4964392;28;20059;-70
2023/01/10 05:53:26;;;;;;;31.17;3.42;;;;;;;;;;4967312;28;20054;-70
2023/01/10 05:55:56;;;;;;;41.85;4.10;;;;;;;;;;4961321;28;20047;-70
2023/01/10 05:58:23;;;;;;;37.58;3.70;;;;;;;;;;4965450;28;20059;-70
2023/01/10 06:00:51;;;;;;;41.78;3.58;;;;;;;;;;4963083;28;20402;-70
2023/01/10 06:03:18;;;;;;;38.00;3.92;;;;;;;;;;4965602;28;20058;-70
2023/01/10 06:05:45;;;;;;;37.90;4.10;;;;;;;;;;4963598;28;20043;-70
2023/01/10 06:08:16;;;;;;;46.92;3.35;;;;;;;;;;4967465;28;20058;-70
2023/01/10 06:10:43;;;;;;;38.53;5.25;;;;;;;;;;4966956;28;20051;-70
2023/01/10 06:13:12;;;;;;;39.60;4.57;;;;;;;;;;4968345;28;20058;-70
2023/01/10 06:15:39;;;;;;;51.22;4.43;;;;;;;;;;4969559;28;20062;-69
2023/01/10 06:18:07;;;;;;;35.80;5.28;;;;;;;;;;4966384;28;20062;-70
2023/01/10 06:20:35;;;;;;;37.88;3.88;;;;;;;;;;4965882;28;20051;-70
2023/01/10 06:23:03;;;;;;;37.70;4.75;;;;;;;;;;4965904;28;20054;-70
2023/01/10 06:25:30;;;;;;;39.50;4.22;;;;;;;;;;4964782;28;20061;-69
2023/01/10 06:27:58;;;;;;;38.08;4.45;;;;;;;;;;4968312;28;20055;-70
2023/01/10 06:30:26;;;;;;;39.72;4.45;;;;;;;;;;4964080;28;20101;-69
2023/01/10 06:32:53;;;;;;;53.67;5.53;;;;;;;;;;4962689;28;20062;-69
2023/01/10 06:35:21;;;;;;;38.80;4.65;;;;;;;;;;4961232;28;20065;-69
2023/01/10 06:37:48;;;;;;;31.95;3.67;;;;;;;;;;4967778;28;20054;-70
2023/01/10 06:40:15;;;;;;;35.90;4.07;;;;;;;;;;4969903;28;20482;-70
2023/01/10 06:42:43;;;;;;;44.95;3.80;;;;;;;;;;4971823;28;20058;-70
2023/01/10 06:45:10;;;;;;;37.05;3.95;;;;;;;;;;4965251;28;20046;-69
2023/01/10 06:47:39;;;;;;;42.00;4.47;;;;;;;;;;4963240;28;20145;-70
2023/01/10 06:50:07;;;;;;;38.92;4.03;;;;;;;;;;4967086;28;20055;-69
2023/01/10 06:52:34;;;;;;;43.80;5.85;;;;;;;;;;4962365;28;20047;-69
2023/01/10 06:55:01;;;;;;;46.90;4.95;;;;;;;;;;4962181;28;20121;-69
2023/01/10 06:57:28;;;;;;;37.47;4.65;;;;;;;;;;4966832;28;20055;-69
2023/01/10 06:59:56;;;;;;;42.65;5.10;;;;;;;;;;4966939;28;20047;-69
2023/01/10 07:02:23;;;;;;;37.35;5.07;;;;;;;;;;4965794;28;20051;-69
2023/01/10 07:04:51;;;;;;;33.13;5.68;;;;;;;;;;4964306;28;20047;-69
2023/01/10 07:07:19;;;;;;;47.78;4.97;;;;;;;;;;4966853;28;20055;-69
2023/01/10 07:09:46;;;;;;;41.22;5.50;;;;;;;;;;4971032;28;20053;-70
2023/01/10 07:12:13;;;;;;;44.03;5.45;;;;;;;;;;4966585;28;20054;-70
2023/01/10 07:14:40;;;;;;;43.90;6.43;;;;;;;;;;4968252;28;20051;-69
2023/01/10 07:17:08;;;;;;;43.83;5.30;;;;;;;;;;4970115;28;20050;-69
2023/01/10 07:19:35;;;;;;;47.80;5.05;;;;;;;;;;4968595;28;20062;-69
2023/01/10 07:22:03;;;;;;;50.50;6.18;;;;;;;;;;4966902;28;20079;-69
2023/01/10 07:24:31;;;;;;;43.63;4.75;;;;;;;;;;4963113;28;20553;-69
2023/01/10 07:26:58;;;;;;;47.22;6.00;;;;;;;;;;4966291;28;20048;-69
2023/01/10 07:29:25;;;;;;;53.50;5.38;;;;;;;;;;4970203;28;20050;-69
2023/01/10 07:31:52;;;;;;;56.63;6.72;;;;;;;;;;4963135;28;20414;-69
2023/01/10 07:34:20;;;;;;;58.78;6.13;;;;;;;;;;4970538;28;20058;-69
2023/01/10 07:36:47;;;;;;;53.60;6.13;;;;;;;;;;4967230;28;20046;-69
2023/01/10 07:39:15;;;;;;;49.42;5.55;;;;;;;;;;4966339;28;20043;-69
2023/01/10 07:41:42;;;;;;;58.45;6.68;;;;;;;;;;4960564;28;20387;-69
2023/01/10 07:44:10;;;;;;;44.10;6.18;;;;;;;;;;4960729;28;20047;-69
2023/01/10 07:46:37;;;;;;;48.70;5.45;;;;;;;;;;4965464;28;20043;-69
2023/01/10 07:49:04;;;;;;;40.10;4.68;;;;;;;;;;4967767;28;20047;-69
2023/01/10 07:51:32;;;;;;;46.75;5.13;;;;;;;;;;4958799;28;20051;-69
2023/01/10 07:53:59;;;;;;;42.47;5.25;;;;;;;;;;4968651;28;20057;-69
2023/01/10 07:56:27;;;;;;;75.45;5.72;;;;;;;;;;4964004;28;20089;-68
2023/01/10 07:58:55;;;;;;;43.22;5.82;;;;;;;;;;4969956;28;20094;-69
2023/01/10 08:01:23;;;;;;;62.22;6.93;;;;;;;;;;4967486;28;20510;-69
2023/01/10 08:03:51;;;;;;;46.70;5.72;;;;;;;;;;4961961;28;20054;-68
2023/01/10 08:06:18;;;;;;;31.75;4.20;;;;;;;;;;4963952;28;20058;-68
2023/01/10 08:08:45;;;;;;;44.40;4.68;;;;;;;;;;4968684;28;20055;-69
2023/01/10 08:11:12;;;;;;;46.70;4.72;;;;;;;;;;4963729;28;20564;-69
2023/01/10 08:13:41;;;;;;;46.17;4.65;;;;;;;;;;4966949;28;20065;-69
2023/01/10 08:16:09;;;;;;;35.20;4.05;;;;;;;;;;4964161;28;20050;-68
2023/01/10 08:18:37;;;;;;;43.33;5.18;;;;;;;;;;4963022;28;20054;-69
2023/01/10 08:21:05;;;;;;;42.60;4.40;;;;;;;;;;4967250;28;20051;-69
2023/01/10 08:23:32;;;;;;;35.78;3.75;;;;;;;;;;4961503;28;20046;-68
2023/01/10 08:26:00;;;;;;;25.73;3.63;;;;;;;;;;4967512;28;20050;-69
2023/01/10 08:28:27;;;;;;;29.08;4.22;;;;;;;;;;4969273;28;20055;-68
2023/01/10 08:30:56;;;;;;;31.58;4.35;;;;;;;;;;4959805;28;20051;-69
2023/01/10 08:33:23;;;;;;;37.35;3.38;;;;;;;;;;4964066;28;20055;-69
2023/01/10 08:35:51;;;;;;;29.25;3.75;;;;;;;;;;4968831;28;20043;-69
2023/01/10 08:38:18;;;;;;;40.28;4.32;;;;;;;;;;4962979;28;20062;-69
2023/01/10 08:40:45;;;;;;;22.73;3.50;;;;;;;;;;4962819;28;20054;-69
2023/01/10 08:43:13;;;;;;;29.58;5.57;;;;;;;;;;4957703;28;20407;-69
2023/01/10 08:45:41;;;;;;;29.55;3.80;;;;;;;;;;4967609;28;20053;-69
2023/01/10 08:48:10;;;;;;;26.63;3.88;;;;;;;;;;4963207;28;20043;-69
2023/01/10 08:50:37;;;;;;;34.38;3.72;;;;;;;;;;4957827;28;20406;-69
2023/01/10 08:53:05;;;;;;;30.60;4.82;;;;;;;;;;4962849;28;20050;-68
2023/01/10 08:55:34;;;;;;;28.70;4.35;;;;;;;;;;4957516;28;20165;-69
2023/01/10 08:58:01;;;;;;;21.23;3.88;;;;;;;;;;4964018;28;20046;-69
2023/01/10 09:00:28;;;;;;;28.08;3.38;;;;;;;;;;4963520;28;20063;-69
2023/01/10 09:02:56;;;;;;;29.77;4.15;;;;;;;;;;4960071;28;20548;-69
2023/01/10 09:05:25;;;;;;;30.58;4.13;;;;;;;;;;4959428;28;20047;-69
2023/01/10 09:07:52;;;;;;;31.77;4.30;;;;;;;;;;4963136;28;20062;-69
2023/01/10 09:10:21;;;;;;;36.95;4.97;;;;;;;;;;4960512;28;20047;-68
2023/01/10 09:12:58;;;;;;;45.85;3.92;;;;;;;;;;4960752;28;20115;-69
2023/01/10 09:15:27;;;;;;;28.73;5.13;;;;;;;;;;4964132;28;20054;-69
2023/01/10 09:17:55;;;;;;;26.92;4.25;;;;;;;;;;4958661;28;20055;-69
2023/01/10 09:20:22;;;;;;;27.88;4.63;;;;;;;;;;4969033;28;20055;-68
2023/01/10 09:22:51;;;;;;;28.10;4.45;;;;;;;;;;4971681;28;20046;-69
2023/01/10 09:25:18;;;;;;;33.10;4.38;;;;;;;;;;4967248;28;20055;-69
2023/01/10 09:27:45;;;;;;;36.63;5.00;;;;;;;;;;4972188;28;20039;-69
2023/01/10 09:30:13;;;;;;;40.65;5.95;;;;;;;;;;4969254;28;20148;-69
2023/01/10 09:32:40;;;;;;;34.83;6.93;;;;;;;;;;4968407;28;20047;-69
2023/01/10 09:35:08;;;;;;;34.45;4.82;;;;;;;;;;4967426;28;20043;-68
2023/01/10 09:37:36;;;;;;;31.85;4.55;;;;;;;;;;4969606;28;20043;-69
2023/01/10 09:40:06;;;;;;;41.20;4.93;;;;;;;;;;4966020;28;20059;-69
2023/01/10 09:42:57;;;;;;;22.08;3.50;;;;;;;;;;4962725;28;20055;-69
2023/01/10 09:45:31;;;;;;;24.92;4.30;;;;;;;;;;4957889;28;20498;-68
2023/01/10 09:48:00;;;;;;;27.27;3.85;;;;;;;;;;4967442;28;20043;-69
2023/01/10 09:50:31;;;;;;;22.95;3.67;;;;;;;;;;4968345;28;20062;-69
2023/01/10 09:53:03;;;;;;;24.95;4.00;;;;;;;;;;4969747;28;20502;-68
2023/01/10 09:55:33;;;;;;;31.88;3.85;;;;;;;;;;4968907;28;20117;-69
2023/01/10 09:58:02;;;;;;;27.17;3.53;;;;;;;;;;4968357;28;20055;-68
2023/01/10 10:00:34;;;;;;;27.05;4.10;;;;;;;;;;4968009;28;21117;-68
2023/01/10 10:03:05;;;;;;;30.40;3.57;;;;;;;;;;4964784;28;20393;-68
2023/01/10 10:05:32;;;;;;;28.88;3.25;;;;;;;;;;4971728;28;20413;-68
2023/01/10 10:08:03;;;;;;;32.00;3.92;;;;;;;;;;4969083;28;20066;-68
2023/01/10 10:10:39;;;;;;;25.52;3.40;;;;;;;;;;4963653;28;20138;-68
2023/01/10 10:13:15;;;;;;;35.58;4.28;;;;;;;;;;4967172;28;20050;-68
2023/01/10 10:15:46;;;;;;;27.50;3.58;;;;;;;;;;4967946;28;20058;-69
2023/01/10 10:18:18;;;;;;;30.30;4.05;;;;;;;;;;4967445;28;20054;-69
2023/01/10 10:20:51;;;;;;;31.50;3.95;;;;;;;;;;4961369;28;20058;-68
2023/01/10 10:23:24;;;;;;;29.52;4.03;;;;;;;;;;4960762;28;20050;-69
2023/01/10 10:26:01;;;;;;;26.23;4.53;;;;;;;;;;4965033;28;20062;-69
2023/01/10 10:28:37;;;;;;;28.58;4.38;;;;;;;;;;4967857;28;20110;-68
2023/01/10 10:31:06;;;;;;;28.63;3.88;;;;;;;;;;4960585;28;20130;-68
2023/01/10 10:33:39;;;;;;;35.08;5.53;;;;;;;;;;4967740;28;20146;-68
2023/01/10 10:36:10;;;;;;;35.83;4.27;;;;;;;;;;4969051;28;20047;-69
2023/01/10 10:38:38;;;;;;;35.92;4.00;;;;;;;;;;4970131;28;20054;-68
2023/01/10 10:41:14;;;;;;;26.20;4.40;;;;;;;;;;4961980;28;20051;-69
2023/01/10 10:43:42;;;;;;;29.08;3.97;;;;;;;;;;4968440;28;20057;-68
2023/01/10 10:46:11;;;;;;;36.58;4.60;;;;;;;;;;4965697;28;20058;-68
2023/01/10 10:48:41;;;;;;;29.80;3.67;;;;;;;;;;4967668;28;20042;-69
2023/01/10 10:51:11;;;;;;;34.80;3.83;;;;;;;;;;4967552;28;20066;-68
2023/01/10 10:53:38;;;;;;;31.95;4.60;;;;;;;;;;4972733;28;20055;-69
2023/01/10 10:56:06;;;;;;;37.63;4.47;;;;;;;;;;4966310;28;20059;-69
2023/01/10 10:58:35;;;;;;;32.85;4.25;;;;;;;;;;4958771;28;20052;-69
2023/01/10 11:01:02;;;;;;;37.78;4.95;;;;;;;;;;4967339;28;20047;-69
2023/01/10 11:03:33;;;;;;;32.67;4.70;;;;;;;;;;4968855;28;20102;-68
2023/01/10 11:06:00;;;;;;;45.53;5.78;;;;;;;;;;4967563;28;20058;-68
2023/01/10 11:08:29;;;;;;;39.33;5.65;;;;;;;;;;4969240;28;20058;-68
2023/01/10 11:10:57;;;;;;;44.35;5.63;;;;;;;;;;4963470;28;20509;-69
2023/01/10 11:13:30;;;;;;;39.20;4.93;;;;;;;;;;4966493;28;20065;-68
2023/01/10 11:15:59;;;;;;;36.50;5.47;;;;;;;;;;4960879;28;20046;-69
2023/01/10 11:18:27;;;;;;;35.70;4.85;;;;;;;;;;4968543;28;20561;-68
2023/01/10 11:20:57;;;;;;;34.05;5.32;;;;;;;;;;4969714;28;20073;-68
2023/01/10 11:23:26;;;;;;;40.58;6.10;;;;;;;;;;4964160;28;20059;-68
2023/01/10 11:25:53;;;;;;;41.35;5.63;;;;;;;;;;4967712;28;20050;-68
2023/01/10 11:28:22;;;;;;;34.13;5.13;;;;;;;;;;4965876;28;20051;-69
2023/01/10 11:30:51;;;;;;;40.72;5.10;;;;;;;;;;4968624;28;20078;-68
2023/01/10 11:33:22;;;;;;;34.25;4.78;;;;;;;;;;4965030;28;20051;-71
2023/01/10 11:35:57;;;;;;;33.70;4.90;;;;;;;;;;4966737;28;20098;-72
2023/01/10 11:38:28;;;;;;;36.95;5.72;;;;;;;;;;4966635;28;20412;-70
2023/01/10 11:40:56;;;;;;;38.97;5.95;;;;;;;;;;4970497;28;20509;-70
2023/01/10 11:43:26;;;;;;;46.20;5.65;;;;;;;;;;4967319;28;20072;-70
2023/01/10 11:45:54;;;;;;;35.55;4.78;;;;;;;;;;4966441;28;20043;-69
2023/01/10 11:48:24;;;;;;;51.60;5.47;;;;;;;;;;4966784;28;20079;-69
2023/01/10 11:50:54;;;;;;;37.72;4.57;;;;;;;;;;4962123;28;20050;-69
2023/01/10 11:53:39;;;;;;;29.92;5.15;;;;;;;;;;4967567;28;20054;-69
2023/01/10 11:56:07;;;;;;;33.22;4.40;;;;;;;;;;4963727;28;20054;-69
2023/01/10 11:58:37;;;;;;;38.60;5.38;;;;;;;;;;4968579;28;20050;-69
2023/01/10 12:01:04;;;;;;;39.15;4.85;;;;;;;;;;4966255;28;20058;-69
2023/01/10 12:03:35;;;;;;;43.45;5.43;;;;;;;;;;4968378;28;20442;-69
2023/01/10 12:06:04;;;;;;;32.63;6.40;;;;;;;;;;4964266;28;20395;-70
2023/01/10 12:08:32;;;;;;;39.60;5.10;;;;;;;;;;4969283;28;20055;-70
2023/01/10 12:11:01;;;;;;;38.80;5.90;;;;;;;;;;4963043;28;20054;-70
2023/01/10 12:13:30;;;;;;;46.97;5.57;;;;;;;;;;4965251;28;20141;-69
2023/01/10 12:16:16;;;;;;;42.90;5.75;;;;;;;;;;4965237;28;20050;-70
2023/01/10 12:18:44;;;;;;;38.65;6.38;;;;;;;;;;4966834;28;20058;-70
2023/01/10 12:21:13;;;;;;;32.95;5.90;;;;;;;;;;4966997;28;20579;-70
2023/01/10 12:23:43;;;;;;;37.42;5.65;;;;;;;;;;4960377;28;20059;-70
2023/01/10 12:26:12;;;;;;;37.58;5.95;;;;;;;;;;4967676;28;20046;-70
2023/01/10 12:28:40;;;;;;;35.47;6.40;;;;;;;;;;4968265;28;20059;-69
2023/01/10 12:31:11;;;;;;;48.97;7.43;;;;;;;;;;4962170;28;20043;-69
2023/01/10 12:33:45;;;;;;;35.38;7.00;;;;;;;;;;4958386;28;20055;-69
2023/01/10 12:36:18;;;;;;;46.08;6.30;;;;;;;;;;4961621;28;20047;-70
2023/01/10 12:39:03;;;;;;;42.80;6.05;;;;;;;;;;4964709;28;20051;-70
2023/01/10 12:44:22;;;;;;;29.55;5.35;;;;;;;;;;4967700;28;20042;-69
2023/01/10 12:46:50;;;;;;;39.00;6.45;;;;;;;;;;4967167;28;20047;-69
2023/01/10 12:49:20;;;;;;;32.88;5.50;;;;;;;;;;4963758;28;20066;-70
2023/01/10 12:51:50;;;;;;;37.10;5.80;;;;;;;;;;4963474;28;20059;-69
2023/01/10 12:54:20;;;;;;;31.88;6.25;;;;;;;;;;4968129;28;20057;-69
2023/01/10 12:56:47;;;;;;;44.42;6.03;;;;;;;;;;4962951;28;20051;-69
2023/01/10 12:59:19;;;;;;;37.80;5.70;;;;;;;;;;4961703;28;20494;-69
2023/01/10 13:01:50;;;;;;;36.47;6.22;;;;;;;;;;4969766;28;20449;-69
2023/01/10 13:04:19;;;;;;;38.70;6.22;;;;;;;;;;4965483;28;20406;-69
2023/01/10 13:06:46;;;;;;;27.48;5.22;;;;;;;;;;4966963;28;20146;-69
2023/01/10 13:09:18;;;;;;;38.55;6.30;;;;;;;;;;4967299;28;20501;-69
2023/01/10 13:11:49;;;;;;;41.88;6.95;;;;;;;;;;4973161;28;20055;-69
2023/01/10 13:14:18;;;;;;;30.95;6.13;;;;;;;;;;4967928;28;20710;-69
2023/01/10 13:16:49;;;;;;;34.72;5.05;;;;;;;;;;4972345;28;20050;-69
2023/01/10 13:19:26;;;;;;;25.70;5.50;;;;;;;;;;4961373;28;20043;-69
2023/01/10 13:22:08;;;;;;;40.67;6.40;;;;;;;;;;4964317;28;20057;-69
2023/01/10 13:24:37;;;;;;;39.20;6.22;;;;;;;;;;4969432;28;20438;-69
2023/01/10 13:27:04;;;;;;;35.42;5.95;;;;;;;;;;4971133;28;20058;-69
2023/01/10 13:29:38;;;;;;;36.88;5.65;;;;;;;;;;4970253;28;20060;-69
2023/01/10 13:32:19;;;;;;;30.58;4.57;;;;;;;;;;4969478;28;20055;-69
2023/01/10 13:34:46;;;;;;;31.60;5.03;;;;;;;;;;4968334;28;20046;-69
2023/01/10 13:37:17;;;;;;;31.60;5.55;;;;;;;;;;4968734;28;20394;-69
2023/01/10 13:39:51;;;;;;;34.05;6.15;;;;;;;;;;4969734;28;20066;-69
2023/01/10 13:45:30;;;;;;;22.65;3.85;;;;;;;;;;4892533;29;20056;-69
2023/01/10 13:48:01;;;;;;;43.45;5.80;;;;;;;;;;4894013;29;20072;-69
2023/01/10 13:50:46;;;;;;;28.33;4.85;;;;;;;;;;4923170;28;20520;-69
2023/01/10 13:53:28;;;;;;;33.78;4.55;;;;;;;;;;4957790;28;20493;-69
2023/01/10 13:55:57;;;;;;;31.95;4.90;;;;;;;;;;4967092;28;20050;-68
2023/01/10 14:04:18;;;;;;;32.05;4.47;;;;;;;;;;4967729;28;20069;-68
2023/01/10 14:06:52;;;;;;;30.77;4.40;;;;;;;;;;4967332;28;20069;-69
2023/01/10 14:09:39;;;;;;;27.17;5.28;;;;;;;;;;4970223;28;20078;-69
2023/01/10 14:12:17;;;;;;;33.17;5.15;;;;;;;;;;4961062;28;20483;-69
2023/01/10 14:14:50;;;;;;;36.08;4.75;;;;;;;;;;4963502;28;20091;-70
2023/01/10 14:17:22;;;;;;;23.98;4.20;;;;;;;;;;4962334;28;20055;-70
2023/01/10 14:19:57;;;;;;;29.95;4.55;;;;;;;;;;4970776;28;20051;-69
2023/01/10 14:22:28;;;;;;;33.30;4.72;;;;;;;;;;4963236;28;20057;-69
2023/01/10 14:24:55;;;;;;;29.33;3.72;;;;;;;;;;4968751;28;20047;-69
2023/01/10 14:27:24;;;;;;;27.60;4.00;;;;;;;;;;4966674;28;20046;-69
2023/01/10 14:29:53;;;;;;;31.10;4.22;;;;;;;;;;4969061;28;20053;-69
2023/01/10 14:32:28;;;;;;;28.55;4.00;;;;;;;;;;4968820;28;20107;-69
2023/01/10 14:34:55;;;;;;;33.17;4.07;;;;;;;;;;4970191;28;20127;-70
2023/01/10 14:37:26;;;;;;;32.30;4.03;;;;;;;;;;4967769;28;20462;-69
2023/01/10 14:39:54;;;;;;;32.70;3.85;;;;;;;;;;4970059;28;20053;-70
2023/01/10 14:42:24;;;;;;;36.42;3.80;;;;;;;;;;4967777;28;20144;-69
2023/01/10 14:44:54;;;;;;;28.58;3.50;;;;;;;;;;4966841;28;20047;-70
2023/01/10 14:47:27;;;;;;;31.95;3.78;;;;;;;;;;4961713;28;20058;-70
2023/01/10 14:49:55;;;;;;;30.30;3.65;;;;;;;;;;4967872;28;20106;-70
2023/01/10 14:52:23;;;;;;;31.55;4.25;;;;;;;;;;4964978;28;20461;-69
2023/01/10 14:54:55;;;;;;;31.02;3.95;;;;;;;;;;4964264;28;20076;-70
2023/01/10 14:57:24;;;;;;;36.65;4.68;;;;;;;;;;4969809;28;20051;-70
2023/01/10 15:00:03;;;;;;;25.40;3.53;;;;;;;;;;4970060;28;20062;-69
2023/01/10 15:02:31;;;;;;;26.45;3.30;;;;;;;;;;4966211;28;20557;-70
2023/01/10 15:04:59;;;;;;;36.33;4.10;;;;;;;;;;4962003;28;20054;-71